sensor_id;sensor_type;location;lat;lon;timestamp;pressure;altitude;pressure_sealevel;temperature;humidity
16777;BME280;8505;49.456;8.164;2023-07-28T00:00:42;98978.88;;;18.25;91.81
16777;BME280;8505;49.456;8.164;2023-07-28T00:03:10;98980.16;;;18.23;91.53
16777;BME280;8505;49.456;8.164;2023-07-28T00:05:39;98983.06;;;18.21;92.23
16777;BME280;8505;49.456;8.164;2023-07-28T00:08:06;98988.59;;;18.14;93.11
16777;BME280;8505;49.456;8.164;2023-07-28T00:10:39;98991.97;;;18.10;93.91
16777;BME280;8505;49.456;8.164;2023-07-28T00:13:09;98988.16;;;18.06;94.52
16777;BME280;8505;49.456;8.164;2023-07-28T00:15:36;98986.13;;;18.13;94.43
16777;BME280;8505;49.456;8.164;2023-07-28T00:18:04;98982.56;;;18.07;94.64
16777;BME280;8505;49.456;8.164;2023-07-28T00:20:32;98987.66;;;18.09;95.03
16777;BME280;8505;49.456;8.164;2023-07-28T00:23:00;98980.34;;;18.04;94.85
16777;BME280;8505;49.456;8.164;2023-07-28T00:25:28;98985.69;;;18.04;95.41
16777;BME280;8505;49.456;8.164;2023-07-28T00:27:58;98987.09;;;18.07;94.76
16777;BME280;8505;49.456;8.164;2023-07-28T00:30:29;98982.78;;;18.06;94.93
16777;BME280;8505;49.456;8.164;2023-07-28T00:32:57;98983.91;;;18.10;95.02
16777;BME280;8505;49.456;8.164;2023-07-28T00:35:25;98980.00;;;18.01;95.09
16777;BME280;8505;49.456;8.164;2023-07-28T00:37:53;98976.50;;;18.00;95.39
16777;BME280;8505;49.456;8.164;2023-07-28T00:40:21;98972.53;;;18.03;95.25
16777;BME280;8505;49.456;8.164;2023-07-28T00:42:50;98971.16;;;18.00;95.16
16777;BME280;8505;49.456;8.164;2023-07-28T00:45:18;98971.47;;;18.04;95.00
16777;BME280;8505;49.456;8.164;2023-07-28T00:47:49;98977.34;;;18.01;95.71
16777;BME280;8505;49.456;8.164;2023-07-28T00:50:17;98973.28;;;18.15;94.28
16777;BME280;8505;49.456;8.164;2023-07-28T00:52:46;98973.09;;;18.05;94.80
16777;BME280;8505;49.456;8.164;2023-07-28T00:55:16;98971.28;;;17.94;96.11
16777;BME280;8505;49.456;8.164;2023-07-28T00:57:43;98964.78;;;17.90;96.18
16777;BME280;8505;49.456;8.164;2023-07-28T01:00:13;98968.03;;;17.92;96.48
16777;BME280;8505;49.456;8.164;2023-07-28T01:02:41;98965.47;;;17.85;97.06
16777;BME280;8505;49.456;8.164;2023-07-28T01:05:10;98961.16;;;17.84;97.45
16777;BME280;8505;49.456;8.164;2023-07-28T01:07:46;98957.16;;;17.98;96.57
16777;BME280;8505;49.456;8.164;2023-07-28T01:10:18;98952.66;;;17.87;96.44
16777;BME280;8505;49.456;8.164;2023-07-28T01:12:52;98958.94;;;17.93;96.16
16777;BME280;8505;49.456;8.164;2023-07-28T01:15:21;98958.47;;;17.96;95.87
16777;BME280;8505;49.456;8.164;2023-07-28T01:17:49;98964.28;;;17.93;95.64
16777;BME280;8505;49.456;8.164;2023-07-28T01:20:18;98955.69;;;17.91;94.96
16777;BME280;8505;49.456;8.164;2023-07-28T01:23:05;98960.66;;;17.99;94.55
16777;BME280;8505;49.456;8.164;2023-07-28T01:25:43;98966.25;;;17.97;94.57
16777;BME280;8505;49.456;8.164;2023-07-28T01:28:18;98964.03;;;18.06;94.20
16777;BME280;8505;49.456;8.164;2023-07-28T01:30:47;98959.25;;;17.96;94.90
16777;BME280;8505;49.456;8.164;2023-07-28T01:33:15;98965.69;;;17.95;95.35
16777;BME280;8505;49.456;8.164;2023-07-28T01:35:44;98972.91;;;17.95;95.76
16777;BME280;8505;49.456;8.164;2023-07-28T01:38:12;98963.47;;;17.92;96.06
16777;BME280;8505;49.456;8.164;2023-07-28T01:40:40;98952.91;;;17.86;96.60
16777;BME280;8505;49.456;8.164;2023-07-28T01:43:08;98958.75;;;17.83;97.09
16777;BME280;8505;49.456;8.164;2023-07-28T01:46:05;98958.25;;;17.86;96.89
16777;BME280;8505;49.456;8.164;2023-07-28T01:48:33;98959.56;;;17.83;96.65
16777;BME280;8505;49.456;8.164;2023-07-28T01:51:01;98957.22;;;17.87;96.06
16777;BME280;8505;49.456;8.164;2023-07-28T01:53:29;98961.63;;;17.93;96.28
16777;BME280;8505;49.456;8.164;2023-07-28T01:55:56;98964.28;;;17.93;96.31
16777;BME280;8505;49.456;8.164;2023-07-28T01:58:24;98956.97;;;17.88;97.04
16777;BME280;8505;49.456;8.164;2023-07-28T02:00:52;98956.16;;;17.88;97.33
16777;BME280;8505;49.456;8.164;2023-07-28T02:03:22;98952.81;;;17.81;97.77
16777;BME280;8505;49.456;8.164;2023-07-28T02:05:50;98957.25;;;17.75;98.06
16777;BME280;8505;49.456;8.164;2023-07-28T02:08:19;98958.63;;;17.77;98.76
16777;BME280;8505;49.456;8.164;2023-07-28T02:10:47;98959.69;;;17.76;98.46
16777;BME280;8505;49.456;8.164;2023-07-28T02:13:14;98952.13;;;17.73;99.06
16777;BME280;8505;49.456;8.164;2023-07-28T02:15:42;98954.56;;;17.75;99.09
16777;BME280;8505;49.456;8.164;2023-07-28T02:18:10;98957.84;;;17.77;99.00
16777;BME280;8505;49.456;8.164;2023-07-28T02:20:39;98942.56;;;17.77;98.31
16777;BME280;8505;49.456;8.164;2023-07-28T02:23:07;98945.22;;;17.77;98.87
16777;BME280;8505;49.456;8.164;2023-07-28T02:25:34;98928.69;;;17.81;98.26
16777;BME280;8505;49.456;8.164;2023-07-28T02:28:02;98938.13;;;17.83;97.85
16777;BME280;8505;49.456;8.164;2023-07-28T02:30:30;98931.38;;;17.81;98.18
16777;BME280;8505;49.456;8.164;2023-07-28T02:32:58;98929.06;;;17.72;98.79
16777;BME280;8505;49.456;8.164;2023-07-28T02:35:25;98912.03;;;17.78;98.73
16777;BME280;8505;49.456;8.164;2023-07-28T02:37:54;98913.44;;;17.81;98.38
16777;BME280;8505;49.456;8.164;2023-07-28T02:40:22;98926.03;;;17.81;98.00
16777;BME280;8505;49.456;8.164;2023-07-28T02:42:50;98916.94;;;17.82;97.49
16777;BME280;8505;49.456;8.164;2023-07-28T02:45:19;98919.47;;;17.88;97.59
16777;BME280;8505;49.456;8.164;2023-07-28T02:47:47;98923.66;;;17.84;97.76
16777;BME280;8505;49.456;8.164;2023-07-28T02:50:15;98915.41;;;17.86;97.53
16777;BME280;8505;49.456;8.164;2023-07-28T02:52:42;98920.75;;;17.86;97.53
16777;BME280;8505;49.456;8.164;2023-07-28T02:55:12;98917.53;;;17.84;97.58
16777;BME280;8505;49.456;8.164;2023-07-28T02:57:39;98922.38;;;17.87;97.40
16777;BME280;8505;49.456;8.164;2023-07-28T03:00:08;98923.53;;;17.91;97.23
16777;BME280;8505;49.456;8.164;2023-07-28T03:02:37;98917.53;;;17.84;97.59
16777;BME280;8505;49.456;8.164;2023-07-28T03:05:05;98937.31;;;17.83;97.49
16777;BME280;8505;49.456;8.164;2023-07-28T03:07:33;98934.97;;;17.86;97.30
16777;BME280;8505;49.456;8.164;2023-07-28T03:10:01;98937.50;;;17.93;96.66
16777;BME280;8505;49.456;8.164;2023-07-28T03:12:30;98927.84;;;17.92;96.79
16777;BME280;8505;49.456;8.164;2023-07-28T03:14:58;98929.97;;;17.90;97.06
16777;BME280;8505;49.456;8.164;2023-07-28T03:17:25;98921.19;;;17.94;97.04
16777;BME280;8505;49.456;8.164;2023-07-28T03:19:53;98915.03;;;17.94;96.59
16777;BME280;8505;49.456;8.164;2023-07-28T03:22:21;98915.03;;;17.94;96.74
16777;BME280;8505;49.456;8.164;2023-07-28T03:24:48;98919.81;;;17.92;96.42
16777;BME280;8505;49.456;8.164;2023-07-28T03:27:16;98924.03;;;17.88;97.25
16777;BME280;8505;49.456;8.164;2023-07-28T03:29:45;98925.88;;;17.87;97.41
16777;BME280;8505;49.456;8.164;2023-07-28T03:32:13;98929.84;;;17.85;97.42
16777;BME280;8505;49.456;8.164;2023-07-28T03:34:40;98916.22;;;17.86;97.34
16777;BME280;8505;49.456;8.164;2023-07-28T03:37:08;98933.59;;;17.84;97.72
16777;BME280;8505;49.456;8.164;2023-07-28T03:39:36;98929.28;;;17.83;97.85
16777;BME280;8505;49.456;8.164;2023-07-28T03:42:04;98935.19;;;17.85;96.89
16777;BME280;8505;49.456;8.164;2023-07-28T03:44:32;98939.28;;;17.87;97.38
16777;BME280;8505;49.456;8.164;2023-07-28T03:47:01;98924.97;;;17.82;97.36
16777;BME280;8505;49.456;8.164;2023-07-28T03:49:29;98920.97;;;17.84;97.42
16777;BME280;8505;49.456;8.164;2023-07-28T03:51:57;98920.19;;;17.84;96.85
16777;BME280;8505;49.456;8.164;2023-07-28T03:54:25;98922.38;;;17.87;97.03
16777;BME280;8505;49.456;8.164;2023-07-28T03:56:53;98922.16;;;17.88;96.94
16777;BME280;8505;49.456;8.164;2023-07-28T03:59:20;98926.94;;;17.86;96.94
16777;BME280;8505;49.456;8.164;2023-07-28T04:01:48;98920.19;;;17.84;96.91
16777;BME280;8505;49.456;8.164;2023-07-28T04:04:17;98926.69;;;17.88;97.09
16777;BME280;8505;49.456;8.164;2023-07-28T04:06:46;98933.34;;;17.85;97.66
16777;BME280;8505;49.456;8.164;2023-07-28T04:09:16;98933.34;;;17.85;97.09
16777;BME280;8505;49.456;8.164;2023-07-28T04:11:44;98933.81;;;17.82;97.19
16777;BME280;8505;49.456;8.164;2023-07-28T04:14:12;98933.00;;;17.82;97.46
16777;BME280;8505;49.456;8.164;2023-07-28T04:16:40;98931.16;;;17.82;97.50
16777;BME280;8505;49.456;8.164;2023-07-28T04:19:08;98929.28;;;17.83;97.54
16777;BME280;8505;49.456;8.164;2023-07-28T04:21:37;98939.28;;;17.87;97.50
16777;BME280;8505;49.456;8.164;2023-07-28T04:24:07;98935.78;;;17.87;97.84
16777;BME280;8505;49.456;8.164;2023-07-28T04:26:35;98946.59;;;17.92;97.74
16777;BME280;8505;49.456;8.164;2023-07-28T04:29:03;98956.97;;;17.88;98.08
16777;BME280;8505;49.456;8.164;2023-07-28T04:31:31;98963.66;;;17.74;99.08
16777;BME280;8505;49.456;8.164;2023-07-28T04:33:58;98973.41;;;17.80;98.90
16777;BME280;8505;49.456;8.164;2023-07-28T04:36:27;98976.66;;;17.94;97.35
16777;BME280;8505;49.456;8.164;2023-07-28T04:38:57;98979.22;;;17.89;98.93
16777;BME280;8505;49.456;8.164;2023-07-28T04:41:24;98981.88;;;18.00;98.84
16777;BME280;8505;49.456;8.164;2023-07-28T04:43:52;98988.72;;;18.08;97.19
16777;BME280;8505;49.456;8.164;2023-07-28T04:46:20;98984.22;;;18.25;96.45
16777;BME280;8505;49.456;8.164;2023-07-28T04:48:48;98985.28;;;18.24;95.31
16777;BME280;8505;49.456;8.164;2023-07-28T04:51:16;98992.44;;;18.35;94.82
16777;BME280;8505;49.456;8.164;2023-07-28T04:53:43;99000.25;;;18.37;94.54
16777;BME280;8505;49.456;8.164;2023-07-28T04:56:12;98996.09;;;18.29;95.38
16777;BME280;8505;49.456;8.164;2023-07-28T04:58:40;99003.81;;;18.26;95.30
16777;BME280;8505;49.456;8.164;2023-07-28T05:01:08;98998.16;;;18.39;94.83
16777;BME280;8505;49.456;8.164;2023-07-28T05:03:36;98998.03;;;18.34;94.66
16777;BME280;8505;49.456;8.164;2023-07-28T05:06:04;98997.22;;;18.33;95.07
16777;BME280;8505;49.456;8.164;2023-07-28T05:08:32;98996.91;;;18.30;94.76
16777;BME280;8505;49.456;8.164;2023-07-28T05:10:59;98992.03;;;18.27;94.83
16777;BME280;8505;49.456;8.164;2023-07-28T05:13:29;98998.00;;;18.45;94.16
16777;BME280;8505;49.456;8.164;2023-07-28T05:15:56;99001.09;;;18.54;93.90
16777;BME280;8505;49.456;8.164;2023-07-28T05:18:24;99001.50;;;18.46;94.46
16777;BME280;8505;49.456;8.164;2023-07-28T05:20:52;98998.56;;;18.47;93.93
16777;BME280;8505;49.456;8.164;2023-07-28T05:23:21;98995.31;;;18.45;94.71
16777;BME280;8505;49.456;8.164;2023-07-28T05:25:48;99004.22;;;18.34;95.29
16777;BME280;8505;49.456;8.164;2023-07-28T05:28:16;99003.03;;;18.42;95.45
16777;BME280;8505;49.456;8.164;2023-07-28T05:30:45;99008.31;;;18.37;95.30
16777;BME280;8505;49.456;8.164;2023-07-28T05:33:13;99009.78;;;18.44;94.84
16777;BME280;8505;49.456;8.164;2023-07-28T05:35:41;99008.06;;;18.38;96.06
16777;BME280;8505;49.456;8.164;2023-07-28T05:38:08;99020.25;;;18.57;94.18
16777;BME280;8505;49.456;8.164;2023-07-28T05:40:36;99010.81;;;18.55;93.18
16777;BME280;8505;49.456;8.164;2023-07-28T05:43:04;99009.06;;;18.49;94.15
16777;BME280;8505;49.456;8.164;2023-07-28T05:45:32;99007.44;;;18.48;93.91
16777;BME280;8505;49.456;8.164;2023-07-28T05:48:01;99011.88;;;18.42;94.96
16777;BME280;8505;49.456;8.164;2023-07-28T05:50:28;99008.72;;;18.45;94.24
16777;BME280;8505;49.456;8.164;2023-07-28T05:52:56;99017.41;;;18.36;95.01
16777;BME280;8505;49.456;8.164;2023-07-28T05:55:24;99002.16;;;18.53;94.13
16777;BME280;8505;49.456;8.164;2023-07-28T05:57:54;99015.34;;;18.54;93.69
16777;BME280;8505;49.456;8.164;2023-07-28T06:00:22;99021.66;;;18.48;93.54
16777;BME280;8505;49.456;8.164;2023-07-28T06:02:50;99017.56;;;18.57;92.87
16777;BME280;8505;49.456;8.164;2023-07-28T06:05:20;99025.06;;;18.72;92.83
16777;BME280;8505;49.456;8.164;2023-07-28T06:07:47;99031.41;;;18.66;92.38
16777;BME280;8505;49.456;8.164;2023-07-28T06:10:15;99040.94;;;18.74;92.76
16777;BME280;8505;49.456;8.164;2023-07-28T06:12:43;99040.22;;;18.95;91.09
16777;BME280;8505;49.456;8.164;2023-07-28T06:15:11;99042.41;;;18.81;91.38
16777;BME280;8505;49.456;8.164;2023-07-28T06:17:39;99051.13;;;18.88;90.91
16777;BME280;8505;49.456;8.164;2023-07-28T06:20:08;99057.25;;;19.01;90.21
16777;BME280;8505;49.456;8.164;2023-07-28T06:22:37;99058.75;;;18.96;90.58
16777;BME280;8505;49.456;8.164;2023-07-28T06:25:06;99064.78;;;18.87;90.76
16777;BME280;8505;49.456;8.164;2023-07-28T06:27:34;99064.06;;;19.08;90.39
16777;BME280;8505;49.456;8.164;2023-07-28T06:30:02;99066.28;;;19.11;90.36
16777;BME280;8505;49.456;8.164;2023-07-28T06:32:30;99074.47;;;19.05;90.01
16777;BME280;8505;49.456;8.164;2023-07-28T06:34:58;99076.41;;;19.09;90.00
16777;BME280;8505;49.456;8.164;2023-07-28T06:37:25;99076.06;;;18.89;90.62
16777;BME280;8505;49.456;8.164;2023-07-28T06:39:55;99079.84;;;19.05;90.37
16777;BME280;8505;49.456;8.164;2023-07-28T06:42:23;99076.09;;;19.06;90.38
16777;BME280;8505;49.456;8.164;2023-07-28T06:44:51;99091.78;;;19.14;90.15
16777;BME280;8505;49.456;8.164;2023-07-28T06:47:19;99083.44;;;19.27;89.88
16777;BME280;8505;49.456;8.164;2023-07-28T06:49:46;99084.16;;;19.22;89.44
16777;BME280;8505;49.456;8.164;2023-07-28T06:52:14;99087.09;;;19.21;89.79
16777;BME280;8505;49.456;8.164;2023-07-28T06:54:42;99092.81;;;19.24;89.35
16777;BME280;8505;49.456;8.164;2023-07-28T06:57:11;99093.34;;;19.26;89.52
16777;BME280;8505;49.456;8.164;2023-07-28T06:59:39;99098.56;;;19.33;89.31
16777;BME280;8505;49.456;8.164;2023-07-28T07:02:06;99094.81;;;19.34;88.73
16777;BME280;8505;49.456;8.164;2023-07-28T07:04:35;99095.72;;;19.39;88.40
16777;BME280;8505;49.456;8.164;2023-07-28T07:07:03;99096.00;;;19.55;87.63
16777;BME280;8505;49.456;8.164;2023-07-28T07:09:31;99089.78;;;19.71;87.03
16777;BME280;8505;49.456;8.164;2023-07-28T07:11:59;99095.66;;;19.68;86.83
16777;BME280;8505;49.456;8.164;2023-07-28T07:14:28;99092.22;;;19.72;86.63
16777;BME280;8505;49.456;8.164;2023-07-28T07:16:56;99100.22;;;19.67;86.77
16777;BME280;8505;49.456;8.164;2023-07-28T07:19:23;99104.03;;;19.71;86.48
16777;BME280;8505;49.456;8.164;2023-07-28T07:21:51;99113.91;;;19.66;86.57
16777;BME280;8505;49.456;8.164;2023-07-28T07:24:19;99109.34;;;19.50;86.92
16777;BME280;8505;49.456;8.164;2023-07-28T07:26:47;99104.94;;;19.60;87.23
16777;BME280;8505;49.456;8.164;2023-07-28T07:29:15;99108.19;;;19.79;86.50
16777;BME280;8505;49.456;8.164;2023-07-28T07:31:44;99119.06;;;19.89;86.83
16777;BME280;8505;49.456;8.164;2023-07-28T07:34:12;99120.22;;;19.93;85.69
16777;BME280;8505;49.456;8.164;2023-07-28T07:36:40;99119.31;;;20.04;84.42
16777;BME280;8505;49.456;8.164;2023-07-28T07:39:07;99118.78;;;20.24;84.21
16777;BME280;8505;49.456;8.164;2023-07-28T07:41:35;99115.25;;;20.24;83.05
16777;BME280;8505;49.456;8.164;2023-07-28T07:44:03;99128.25;;;20.32;83.26
16777;BME280;8505;49.456;8.164;2023-07-28T07:46:31;99120.69;;;20.29;82.32
16777;BME280;8505;49.456;8.164;2023-07-28T07:49:00;99115.84;;;20.47;81.30
16777;BME280;8505;49.456;8.164;2023-07-28T07:51:28;99134.63;;;20.26;83.50
16777;BME280;8505;49.456;8.164;2023-07-28T07:53:55;99134.88;;;20.41;82.06
16777;BME280;8505;49.456;8.164;2023-07-28T07:56:23;99134.13;;;20.67;81.46
16777;BME280;8505;49.456;8.164;2023-07-28T07:58:51;99139.06;;;21.02;79.04
16777;BME280;8505;49.456;8.164;2023-07-28T08:01:19;99133.50;;;21.09;79.67
16777;BME280;8505;49.456;8.164;2023-07-28T08:03:47;99140.41;;;21.26;77.59
16777;BME280;8505;49.456;8.164;2023-07-28T08:06:16;99130.03;;;21.13;78.02
16777;BME280;8505;49.456;8.164;2023-07-28T08:08:44;99133.69;;;21.61;78.01
16777;BME280;8505;49.456;8.164;2023-07-28T08:11:12;99127.00;;;22.00;75.06
16777;BME280;8505;49.456;8.164;2023-07-28T08:13:39;99140.03;;;21.76;75.40
16777;BME280;8505;49.456;8.164;2023-07-28T08:16:07;99139.19;;;21.71;74.68
16777;BME280;8505;49.456;8.164;2023-07-28T08:18:35;99132.56;;;21.89;74.30
16777;BME280;8505;49.456;8.164;2023-07-28T08:21:03;99135.09;;;22.00;74.33
16777;BME280;8505;49.456;8.164;2023-07-28T08:23:32;99137.28;;;21.34;75.52
16777;BME280;8505;49.456;8.164;2023-07-28T08:26:00;99132.34;;;21.58;77.14
16777;BME280;8505;49.456;8.164;2023-07-28T08:28:27;99140.19;;;21.97;75.29
16777;BME280;8505;49.456;8.164;2023-07-28T08:30:56;99139.22;;;22.13;75.40
16777;BME280;8505;49.456;8.164;2023-07-28T08:33:25;99139.03;;;22.30;73.80
16777;BME280;8505;49.456;8.164;2023-07-28T08:35:52;99144.09;;;22.78;71.11
16777;BME280;8505;49.456;8.164;2023-07-28T08:38:20;99148.50;;;22.99;70.41
16777;BME280;8505;49.456;8.164;2023-07-28T08:40:49;99147.25;;;22.65;70.38
16777;BME280;8505;49.456;8.164;2023-07-28T08:43:17;99140.53;;;22.63;71.13
16777;BME280;8505;49.456;8.164;2023-07-28T08:45:45;99149.13;;;22.54;70.89
16777;BME280;8505;49.456;8.164;2023-07-28T08:48:13;99143.09;;;23.05;69.91
16777;BME280;8505;49.456;8.164;2023-07-28T08:50:41;99149.13;;;23.47;67.49
16777;BME280;8505;49.456;8.164;2023-07-28T08:53:10;99144.53;;;23.58;67.13
16777;BME280;8505;49.456;8.164;2023-07-28T08:55:37;99149.13;;;23.77;67.84
16777;BME280;8505;49.456;8.164;2023-07-28T08:58:18;99144.81;;;23.66;66.06
16777;BME280;8505;49.456;8.164;2023-07-28T09:00:47;99143.44;;;23.59;67.44
16777;BME280;8505;49.456;8.164;2023-07-28T09:03:16;99150.69;;;23.08;66.98
16777;BME280;8505;49.456;8.164;2023-07-28T09:05:45;99154.22;;;23.23;66.93
16777;BME280;8505;49.456;8.164;2023-07-28T09:08:13;99147.13;;;22.92;69.23
16777;BME280;8505;49.456;8.164;2023-07-28T09:10:41;99158.03;;;23.37;67.69
16777;BME280;8505;49.456;8.164;2023-07-28T09:13:10;99158.88;;;23.53;65.28
16777;BME280;8505;49.456;8.164;2023-07-28T09:15:44;99148.03;;;24.19;64.76
16777;BME280;8505;49.456;8.164;2023-07-28T09:18:15;99151.97;;;24.47;63.11
16777;BME280;8505;49.456;8.164;2023-07-28T09:20:43;99146.91;;;24.25;62.10
16777;BME280;8505;49.456;8.164;2023-07-28T09:23:13;99159.31;;;23.10;66.61
16777;BME280;8505;49.456;8.164;2023-07-28T09:25:41;99166.09;;;22.45;69.32
16777;BME280;8505;49.456;8.164;2023-07-28T09:28:09;99159.91;;;22.49;70.14
16777;BME280;8505;49.456;8.164;2023-07-28T09:30:47;99165.38;;;22.65;69.69
16777;BME280;8505;49.456;8.164;2023-07-28T09:33:29;99167.16;;;22.44;70.13
16777;BME280;8505;49.456;8.164;2023-07-28T09:35:57;99165.16;;;22.24;71.41
16777;BME280;8505;49.456;8.164;2023-07-28T09:38:36;99170.69;;;22.49;69.49
16777;BME280;8505;49.456;8.164;2023-07-28T09:41:04;99160.44;;;22.46;69.88
16777;BME280;8505;49.456;8.164;2023-07-28T09:43:34;99175.16;;;22.76;69.99
16777;BME280;8505;49.456;8.164;2023-07-28T09:46:06;99170.78;;;22.70;69.83
16777;BME280;8505;49.456;8.164;2023-07-28T09:48:37;99171.44;;;22.92;68.79
16777;BME280;8505;49.456;8.164;2023-07-28T09:51:08;99169.84;;;23.01;68.17
16777;BME280;8505;49.456;8.164;2023-07-28T09:53:42;99171.19;;;22.98;67.57
16777;BME280;8505;49.456;8.164;2023-07-28T09:56:12;99171.41;;;22.77;68.87
16777;BME280;8505;49.456;8.164;2023-07-28T09:58:49;99171.06;;;22.68;69.81
16777;BME280;8505;49.456;8.164;2023-07-28T10:01:18;99180.31;;;22.82;71.98
16777;BME280;8505;49.456;8.164;2023-07-28T10:03:48;99172.88;;;23.30;67.56
16777;BME280;8505;49.456;8.164;2023-07-28T10:06:17;99172.13;;;23.60;67.54
16777;BME280;8505;49.456;8.164;2023-07-28T10:08:46;99172.88;;;23.30;67.63
16777;BME280;8505;49.456;8.164;2023-07-28T10:11:15;99174.28;;;23.48;66.99
16777;BME280;8505;49.456;8.164;2023-07-28T10:13:44;99172.56;;;23.21;67.35
16777;BME280;8505;49.456;8.164;2023-07-28T10:16:15;99179.09;;;23.20;67.49
16777;BME280;8505;49.456;8.164;2023-07-28T10:18:53;99179.34;;;22.46;69.20
16777;BME280;8505;49.456;8.164;2023-07-28T10:21:21;99178.78;;;22.49;69.10
16777;BME280;8505;49.456;8.164;2023-07-28T10:23:53;99190.53;;;22.28;70.65
16777;BME280;8505;49.456;8.164;2023-07-28T10:26:35;99189.41;;;22.14;70.97
16777;BME280;8505;49.456;8.164;2023-07-28T10:29:12;99188.56;;;22.08;71.36
16777;BME280;8505;49.456;8.164;2023-07-28T10:31:52;99195.84;;;22.13;71.44
16777;BME280;8505;49.456;8.164;2023-07-28T10:34:22;99190.97;;;22.10;71.80
16777;BME280;8505;49.456;8.164;2023-07-28T10:36:57;99203.56;;;21.99;72.45
16777;BME280;8505;49.456;8.164;2023-07-28T10:39:26;99200.63;;;22.01;72.43
16777;BME280;8505;49.456;8.164;2023-07-28T10:42:03;99203.34;;;22.06;72.45
16777;BME280;8505;49.456;8.164;2023-07-28T10:44:32;99195.00;;;22.07;75.23
16777;BME280;8505;49.456;8.164;2023-07-28T10:47:01;99200.16;;;22.09;74.84
16777;BME280;8505;49.456;8.164;2023-07-28T10:49:32;99201.63;;;21.95;75.56
16777;BME280;8505;49.456;8.164;2023-07-28T10:52:01;99202.34;;;22.17;73.73
16777;BME280;8505;49.456;8.164;2023-07-28T10:54:30;99190.88;;;22.37;73.20
16777;BME280;8505;49.456;8.164;2023-07-28T10:57:01;99195.41;;;22.73;72.45
16777;BME280;8505;49.456;8.164;2023-07-28T10:59:31;99197.28;;;22.73;72.08
16777;BME280;8505;49.456;8.164;2023-07-28T11:01:58;99197.88;;;22.85;72.19
16777;BME280;8505;49.456;8.164;2023-07-28T11:04:26;99199.25;;;22.92;71.78
16777;BME280;8505;49.456;8.164;2023-07-28T11:06:56;99198.56;;;22.65;74.02
16777;BME280;8505;49.456;8.164;2023-07-28T11:09:23;99195.13;;;22.75;74.95
16777;BME280;8505;49.456;8.164;2023-07-28T11:11:51;99191.41;;;22.96;73.63
16777;BME280;8505;49.456;8.164;2023-07-28T11:14:19;99196.88;;;23.11;73.73
16777;BME280;8505;49.456;8.164;2023-07-28T11:16:48;99200.28;;;22.76;74.99
16777;BME280;8505;49.456;8.164;2023-07-28T11:19:17;99207.75;;;23.26;74.16
16777;BME280;8505;49.456;8.164;2023-07-28T11:21:52;99201.22;;;23.27;73.31
16777;BME280;8505;49.456;8.164;2023-07-28T11:24:21;99198.00;;;23.40;72.71
16777;BME280;8505;49.456;8.164;2023-07-28T11:26:50;99199.25;;;22.97;73.11
16777;BME280;8505;49.456;8.164;2023-07-28T11:29:18;99189.81;;;22.95;71.66
16777;BME280;8505;49.456;8.164;2023-07-28T11:31:48;99193.19;;;23.58;70.42
16777;BME280;8505;49.456;8.164;2023-07-28T11:34:16;99191.78;;;23.20;70.33
16777;BME280;8505;49.456;8.164;2023-07-28T11:36:44;99195.81;;;23.22;71.32
16777;BME280;8505;49.456;8.164;2023-07-28T11:39:12;99198.00;;;23.25;71.24
16777;BME280;8505;49.456;8.164;2023-07-28T11:41:42;99192.59;;;23.40;71.62
16777;BME280;8505;49.456;8.164;2023-07-28T11:44:12;99191.03;;;23.50;69.93
16777;BME280;8505;49.456;8.164;2023-07-28T11:46:41;99192.78;;;22.93;72.84
16777;BME280;8505;49.456;8.164;2023-07-28T11:49:11;99189.19;;;22.78;71.45
16777;BME280;8505;49.456;8.164;2023-07-28T11:51:39;99187.59;;;22.77;73.28
16777;BME280;8505;49.456;8.164;2023-07-28T11:54:11;99195.22;;;23.00;73.48
16777;BME280;8505;49.456;8.164;2023-07-28T11:56:42;99198.16;;;22.83;72.71
16777;BME280;8505;49.456;8.164;2023-07-28T11:59:11;99190.13;;;22.46;71.91
16777;BME280;8505;49.456;8.164;2023-07-28T12:01:52;99185.56;;;22.52;73.10
16777;BME280;8505;49.456;8.164;2023-07-28T12:04:24;99191.31;;;22.71;72.33
16777;BME280;8505;49.456;8.164;2023-07-28T12:07:09;99188.03;;;22.64;72.51
16777;BME280;8505;49.456;8.164;2023-07-28T12:09:48;99185.19;;;22.90;71.54
16777;BME280;8505;49.456;8.164;2023-07-28T12:12:31;99186.31;;;22.94;70.88
16777;BME280;8505;49.456;8.164;2023-07-28T12:15:19;99191.16;;;23.03;70.00
16777;BME280;8505;49.456;8.164;2023-07-28T12:18:09;99186.22;;;22.74;70.68
16777;BME280;8505;49.456;8.164;2023-07-28T12:20:41;99193.09;;;23.07;69.88
16777;BME280;8505;49.456;8.164;2023-07-28T12:23:14;99191.06;;;22.72;70.82
16777;BME280;8505;49.456;8.164;2023-07-28T12:25:46;99188.47;;;22.40;71.88
16777;BME280;8505;49.456;8.164;2023-07-28T12:28:16;99186.19;;;22.22;72.31
16777;BME280;8505;49.456;8.164;2023-07-28T12:30:46;99186.88;;;22.44;72.83
16777;BME280;8505;49.456;8.164;2023-07-28T12:33:16;99201.91;;;22.35;72.70
16777;BME280;8505;49.456;8.164;2023-07-28T12:35:48;99199.13;;;22.20;74.03
16777;BME280;8505;49.456;8.164;2023-07-28T12:38:17;99202.13;;;21.92;73.96
16777;BME280;8505;49.456;8.164;2023-07-28T12:40:48;99200.88;;;21.99;74.32
16777;BME280;8505;49.456;8.164;2023-07-28T12:43:20;99202.66;;;21.89;74.65
16777;BME280;8505;49.456;8.164;2023-07-28T12:45:54;99199.66;;;22.22;73.83
16777;BME280;8505;49.456;8.164;2023-07-28T12:48:25;99209.16;;;22.25;73.19
16777;BME280;8505;49.456;8.164;2023-07-28T12:50:53;99212.28;;;22.11;74.45
16777;BME280;8505;49.456;8.164;2023-07-28T12:53:24;99207.72;;;22.12;75.99
16777;BME280;8505;49.456;8.164;2023-07-28T12:55:52;99211.16;;;22.02;76.71
16777;BME280;8505;49.456;8.164;2023-07-28T12:58:24;99207.50;;;21.87;78.09
16777;BME280;8505;49.456;8.164;2023-07-28T13:00:55;99215.19;;;21.73;78.42
16777;BME280;8505;49.456;8.164;2023-07-28T13:03:27;99215.94;;;21.63;79.91
16777;BME280;8505;49.456;8.164;2023-07-28T13:05:55;99214.25;;;21.89;80.19
16777;BME280;8505;49.456;8.164;2023-07-28T13:08:23;99216.56;;;21.75;78.42
16777;BME280;8505;49.456;8.164;2023-07-28T13:10:53;99224.41;;;21.50;80.15
16777;BME280;8505;49.456;8.164;2023-07-28T13:13:25;99224.31;;;21.67;79.84
16777;BME280;8505;49.456;8.164;2023-07-28T13:15:56;99220.53;;;21.68;80.86
16777;BME280;8505;49.456;8.164;2023-07-28T13:18:24;99222.25;;;21.20;81.58
16777;BME280;8505;49.456;8.164;2023-07-28T13:20:52;99219.03;;;21.02;82.83